createdAt,value
2023-05-10T00:00:23.594Z,3.38
2023-05-10T00:05:46.615Z,3.33
2023-05-10T00:10:50.980Z,3.55
2023-05-10T00:15:56.259Z,3.47
2023-05-10T00:21:00.119Z,3.45
2023-05-10T00:26:04.163Z,3.15
2023-05-10T00:31:09.531Z,9.13
2023-05-10T00:36:13.508Z,10.80
2023-05-10T00:41:18.810Z,9.97
2023-05-10T00:46:25.250Z,11.88
2023-05-10T00:51:29.234Z,12.68
2023-05-10T00:56:33.692Z,10.93
2023-05-10T01:01:40.043Z,12.50
2023-05-10T01:06:44.479Z,11.48
2023-05-10T01:11:49.452Z,12.05
2023-05-10T01:16:55.406Z,11.60
2023-05-10T01:27:28.683Z,11.25
2023-05-10T01:32:38.932Z,11.18
2023-05-10T01:37:47.568Z,10.35
2023-05-10T01:42:56.597Z,10.88
2023-05-10T01:48:08.542Z,10.23
2023-05-10T01:53:15.248Z,9.75
2023-05-10T01:58:23.328Z,9.98
2023-05-10T02:03:31.509Z,10.63
2023-05-10T02:08:38.213Z,8.95
2023-05-10T02:13:44.591Z,9.75
2023-05-10T02:18:52.546Z,9.90
2023-05-10T02:23:57.502Z,9.75
2023-05-10T02:29:04.385Z,8.75
2023-05-10T02:34:11.748Z,8.85
2023-05-10T02:39:17.812Z,9.18
2023-05-10T02:44:23.138Z,8.70
2023-05-10T02:49:28.539Z,9.33
2023-05-10T02:54:35.333Z,9.05
2023-05-10T02:59:39.240Z,9.07
2023-05-10T03:04:44.590Z,8.32
2023-05-10T03:09:51.130Z,7.90
2023-05-10T03:15:13.343Z,7.80
2023-05-10T03:20:26.767Z,7.95
2023-05-10T03:25:33.281Z,9.68
2023-05-10T03:30:39.421Z,8.68
2023-05-10T03:35:46.836Z,7.18
2023-05-10T03:40:51.804Z,7.80
2023-05-10T03:45:55.851Z,7.28
2023-05-10T03:51:01.276Z,7.72
2023-05-10T03:56:05.556Z,8.23
2023-05-10T04:01:09.632Z,7.38
2023-05-10T04:06:15.090Z,7.47
2023-05-10T04:11:19.127Z,8.80
2023-05-10T04:16:23.014Z,7.15
2023-05-10T04:21:28.455Z,7.15
2023-05-10T04:26:32.412Z,7.72
2023-05-10T04:31:37.367Z,7.20
2023-05-10T04:36:42.660Z,7.53
2023-05-10T04:41:46.593Z,7.35
2023-05-10T04:46:50.506Z,6.90
2023-05-10T04:51:56.075Z,8.05
2023-05-10T04:57:00.034Z,7.97
2023-05-10T05:02:04.583Z,7.60
2023-05-10T05:07:10.049Z,6.65
2023-05-10T05:12:15.338Z,7.90
2023-05-10T05:17:19.511Z,7.90
2023-05-10T05:22:28.517Z,6.80
2023-05-10T05:27:32.482Z,6.72
2023-05-10T05:32:36.853Z,6.03
2023-05-10T05:37:42.222Z,5.90
2023-05-10T05:42:46.156Z,5.22
2023-05-10T05:47:50.187Z,5.68
2023-05-10T05:52:55.534Z,5.55
2023-05-10T05:57:59.419Z,5.55
2023-05-10T06:03:03.501Z,6.80
2023-05-10T06:08:08.908Z,6.22
2023-05-10T06:13:12.959Z,6.10
2023-05-10T06:18:16.944Z,3.88
2023-05-10T06:23:23.277Z,4.70
2023-05-10T06:28:27.172Z,4.45
2023-05-10T06:33:31.112Z,3.60
2023-05-10T06:38:36.498Z,2.90
2023-05-10T06:43:42.288Z,2.80
2023-05-10T06:53:51.222Z,3.00
2023-05-10T06:58:55.267Z,3.55
2023-05-10T07:03:59.160Z,3.60
2023-05-10T07:09:04.829Z,2.80
2023-05-10T07:14:08.821Z,2.72
2023-05-10T07:19:12.783Z,3.00
2023-05-10T07:24:18.730Z,3.00
2023-05-10T07:29:22.800Z,2.65
2023-05-10T07:34:26.773Z,2.58
2023-05-10T07:39:32.213Z,2.50
2023-05-10T07:44:36.163Z,2.75
2023-05-10T07:49:40.228Z,2.40
2023-05-10T07:54:45.674Z,2.63
2023-05-10T07:59:49.547Z,2.92
2023-05-10T08:04:55.015Z,2.70
2023-05-10T08:10:00.256Z,3.35
2023-05-10T08:15:04.745Z,2.83
2023-05-10T08:20:09.674Z,2.90
2023-05-10T08:25:17.052Z,3.50
2023-05-10T08:30:21.419Z,3.63
2023-05-10T08:35:25.553Z,2.80
2023-05-10T08:40:31.290Z,3.05
2023-05-10T08:50:41.625Z,3.08
2023-05-10T08:55:47.273Z,5.30
2023-05-10T09:00:53.493Z,2.80
2023-05-10T09:05:57.931Z,3.03
2023-05-10T09:11:03.943Z,3.03
2023-05-10T09:16:20.481Z,2.50
2023-05-10T09:21:27.528Z,3.00
2023-05-10T09:26:33.001Z,2.78
2023-05-10T09:31:48.884Z,2.95
2023-05-10T09:36:56.318Z,2.40
2023-05-10T09:42:04.830Z,2.80
2023-05-10T09:47:08.794Z,2.80
2023-05-10T09:52:12.687Z,2.75
2023-05-10T09:57:23.476Z,2.60
2023-05-10T10:02:31.377Z,2.60
2023-05-10T10:07:36.328Z,2.70
2023-05-10T10:12:43.980Z,2.53
2023-05-10T10:17:48.936Z,3.10
2023-05-10T10:22:53.623Z,3.05
2023-05-10T10:28:11.488Z,2.70
2023-05-10T10:33:42.453Z,2.60
2023-05-10T10:39:02.313Z,2.90
2023-05-10T10:44:27.065Z,2.80
2023-05-10T10:49:34.628Z,2.55
2023-05-10T10:54:39.336Z,2.90
2023-05-10T10:59:48.049Z,3.03
2023-05-10T11:04:52.005Z,2.67
2023-05-10T11:10:06.121Z,2.42
2023-05-10T11:15:12.630Z,2.65
2023-05-10T11:20:17.276Z,3.30
2023-05-10T11:25:21.958Z,2.30
2023-05-10T11:30:27.601Z,2.67
2023-05-10T11:35:31.767Z,2.05
2023-05-10T11:40:36.081Z,2.47
2023-05-10T11:45:43.627Z,2.63
2023-05-10T11:50:48.485Z,2.50
2023-05-10T11:55:52.567Z,2.40
2023-05-10T12:00:58.483Z,2.50
2023-05-10T12:06:05.696Z,2.20
2023-05-10T12:11:11.409Z,2.45
2023-05-10T12:16:18.695Z,2.80
2023-05-10T12:21:23.524Z,2.22
2023-05-10T12:26:28.508Z,2.50
2023-05-10T12:31:33.917Z,2.40
2023-05-10T12:36:41.042Z,2.55
2023-05-10T12:41:45.290Z,2.95
2023-05-10T12:46:50.996Z,2.30
2023-05-10T12:51:55.117Z,2.55
2023-05-10T12:56:59.083Z,2.85
2023-05-10T13:02:04.508Z,3.13
2023-05-10T13:07:08.798Z,2.42
2023-05-10T13:12:12.966Z,2.60
2023-05-10T13:17:18.355Z,2.60
2023-05-10T13:22:32.581Z,2.95
2023-05-10T13:27:43.680Z,2.92
2023-05-10T13:32:49.149Z,3.10
2023-05-10T13:37:56.342Z,2.63
2023-05-10T13:43:00.364Z,3.35
2023-05-10T13:48:06.303Z,3.20
2023-05-10T13:53:10.389Z,3.35
2023-05-10T13:58:14.470Z,3.20
2023-05-10T14:03:19.969Z,2.80
2023-05-10T14:08:24.203Z,2.75
2023-05-10T14:13:28.628Z,2.75
2023-05-10T14:18:34.075Z,3.17
2023-05-10T14:23:38.062Z,3.10
2023-05-10T14:28:42.156Z,2.88
2023-05-10T14:33:47.790Z,3.70
2023-05-10T14:38:51.891Z,2.70
2023-05-10T14:43:56.367Z,2.53
2023-05-10T14:49:01.697Z,2.88
2023-05-10T14:54:05.750Z,2.58
2023-05-10T14:59:09.939Z,2.63
2023-05-10T15:04:17.562Z,2.60
2023-05-10T15:09:22.131Z,2.78
2023-05-10T15:14:26.167Z,2.85
2023-05-10T15:19:31.527Z,2.22
2023-05-10T15:24:35.492Z,2.50
2023-05-10T15:29:39.581Z,2.70
2023-05-10T15:34:45.094Z,2.95
2023-05-10T15:45:12.420Z,2.50
2023-05-10T15:50:18.380Z,2.58
2023-05-10T15:55:22.353Z,2.88
2023-05-10T16:00:26.484Z,2.67
2023-05-10T16:05:33.688Z,2.45
2023-05-10T16:10:38.175Z,2.88
2023-05-10T16:15:42.116Z,2.60
2023-05-10T16:20:47.609Z,2.47
2023-05-10T16:25:51.495Z,3.05
2023-05-10T16:30:55.450Z,2.60
2023-05-10T16:36:00.756Z,3.08
2023-05-10T16:41:04.951Z,3.10
2023-05-10T16:46:12.523Z,2.97
2023-05-10T16:51:17.883Z,3.30
2023-05-10T16:56:23.415Z,2.78
2023-05-10T17:01:27.602Z,2.95
2023-05-10T17:06:33.923Z,2.83
2023-05-10T17:11:38.028Z,3.08
2023-05-10T17:16:42.820Z,2.75
2023-05-10T17:21:48.191Z,3.03
2023-05-10T17:26:53.325Z,3.15
2023-05-10T17:32:00.776Z,3.83
2023-05-10T17:37:06.404Z,3.33
2023-05-10T17:42:10.311Z,3.40
2023-05-10T17:47:14.336Z,3.30
2023-05-10T17:52:19.948Z,3.47
2023-05-10T17:57:24.800Z,3.50
2023-05-10T18:02:28.776Z,3.95
2023-05-10T18:07:35.913Z,3.60
2023-05-10T18:12:39.956Z,4.70
2023-05-10T18:17:44.124Z,4.25
2023-05-10T18:22:49.896Z,4.35
2023-05-10T18:32:58.149Z,4.93
2023-05-10T18:38:03.687Z,4.70
2023-05-10T18:43:07.595Z,4.28
2023-05-10T18:48:11.522Z,4.38
2023-05-10T18:53:17.104Z,4.03
2023-05-10T18:58:21.214Z,4.63
2023-05-10T19:03:25.676Z,5.03
2023-05-10T19:08:31.229Z,4.55
2023-05-10T19:13:35.304Z,4.95
2023-05-10T19:18:40.584Z,4.57
2023-05-10T19:23:45.884Z,6.68
2023-05-10T19:28:52.456Z,7.18
2023-05-10T19:33:58.052Z,5.40
2023-05-10T19:39:05.989Z,5.78
2023-05-10T19:44:09.951Z,5.47
2023-05-10T19:49:13.880Z,5.30
2023-05-10T19:54:19.258Z,5.30
2023-05-10T19:59:23.516Z,4.80
2023-05-10T20:04:28.948Z,4.72
2023-05-10T20:09:34.727Z,5.43
2023-05-10T20:14:38.636Z,4.97
2023-05-10T20:19:42.817Z,4.45
2023-05-10T20:24:48.557Z,5.68
2023-05-10T20:34:56.509Z,7.85
2023-05-10T20:40:02.066Z,8.00
2023-05-10T20:45:07.279Z,7.88
2023-05-10T20:50:12.366Z,7.85
2023-05-10T20:55:17.783Z,7.93
2023-05-10T21:00:22.294Z,7.18
2023-05-10T21:05:26.430Z,6.88
2023-05-10T21:10:31.782Z,6.97
2023-05-10T21:15:35.780Z,5.43
2023-05-10T21:20:39.674Z,6.82
2023-05-10T21:25:45.112Z,5.65
2023-05-10T21:30:49.099Z,6.28
2023-05-10T21:35:53.463Z,5.93
2023-05-10T21:40:58.738Z,6.20
2023-05-10T21:46:03.053Z,5.60
2023-05-10T21:51:07.166Z,5.20
2023-05-10T21:56:12.776Z,5.03
2023-05-10T22:01:18.052Z,6.18
2023-05-10T22:06:21.980Z,4.30
2023-05-10T22:11:27.510Z,5.47
2023-05-10T22:16:31.696Z,4.93
2023-05-10T22:21:35.714Z,5.05
2023-05-10T22:26:40.937Z,6.10
2023-05-10T22:31:44.906Z,4.35
2023-05-10T22:36:49.647Z,5.68
2023-05-10T22:41:54.922Z,5.85
2023-05-10T22:46:58.862Z,5.20
2023-05-10T22:52:02.865Z,5.75
2023-05-10T22:57:08.369Z,5.63
2023-05-10T23:02:14.329Z,5.45
2023-05-10T23:07:18.306Z,6.07
2023-05-10T23:12:23.533Z,6.22
2023-05-10T23:17:27.564Z,5.68
2023-05-10T23:22:31.515Z,6.25
2023-05-10T23:27:36.834Z,5.63
2023-05-10T23:32:40.721Z,5.70
2023-05-10T23:37:44.758Z,5.20
2023-05-10T23:42:50.160Z,5.00
2023-05-10T23:47:54.298Z,4.85
2023-05-10T23:52:58.333Z,4.70
2023-05-10T23:58:03.706Z,5.97
